| time (UTC) | temp F | wind direction | speed knots | gust knots | rain 1hr in | rain 24hr in | rain mn in | humidity % | barometer mb |
| 20260506193307 | 37 | 160 | 4.3 | 0.0 | 0.00 | 0.00 | 0.00 | 86 | 1011.0 |
| 20260506190306 | 39 | 170 | 5.2 | 0.0 | 0.00 | 0.00 | 0.00 | 80 | 1011.0 |
| 20260506183307 | 39 | 170 | 6.1 | 0.0 | 0.00 | 0.00 | 0.00 | 75 | 1011.0 |
| 20260506180307 | 41 | 0 | 1.7 | 0.0 | 0.00 | 0.00 | 0.00 | 70 | 1011.0 |
| 20260506173308 | 41 | 220 | 6.1 | 0.0 | 0.00 | 0.00 | 0.00 | 70 | 1011.0 |
| 20260506170307 | 41 | 190 | 8.7 | 0.0 | 0.00 | 0.00 | 0.00 | 75 | 1010.0 |
| 20260506163307 | 41 | 180 | 2.6 | 0.0 | 0.00 | 0.00 | 0.00 | 80 | 1010.0 |
| 20260506160307 | 41 | 160 | 5.2 | 0.0 | 0.00 | 0.00 | 0.00 | 75 | 1010.0 |
| 20260506153307 | 39 | 170 | 7.8 | 0.0 | 0.00 | 0.00 | 0.00 | 80 | 1010.0 |
| 20260506150307 | 37 | 170 | 7.0 | 0.0 | 0.00 | 0.00 | 0.00 | 86 | 1010.0 |
| 20260506143307 | 41 | 190 | 6.1 | 0.0 | 0.00 | 0.00 | 0.00 | 70 | 1010.0 |
| 20260506140307 | 41 | 180 | 8.7 | 0.0 | 0.00 | 0.00 | 0.00 | 70 | 1010.0 |
| 20260506133307 | 42 | 170 | 7.8 | 0.0 | 0.00 | 0.00 | 0.00 | 70 | 1009.0 |
| 20260506130308 | 42 | 210 | 2.6 | 0.0 | 0.00 | 0.00 | 0.00 | 70 | 1009.0 |
| 20260506123307 | 42 | 0 | 2.6 | 0.0 | 0.00 | 0.00 | 0.00 | 70 | 1009.0 |
| 20260506120308 | 42 | 360 | 7.0 | 0.0 | 0.00 | 0.00 | 0.00 | 70 | 1009.0 |
| 20260506113308 | 41 | 360 | 6.1 | 0.0 | 0.00 | 0.00 | 0.00 | 80 | 1009.0 |
| 20260506110307 | 44 | 0 | 2.6 | 0.0 | 0.00 | 0.00 | 0.00 | 65 | 1009.0 |
| 20260506103306 | 44 | 0 | 1.7 | 0.0 | 0.00 | 0.00 | 0.00 | 60 | 1008.0 |
| 20260506100308 | 42 | 0 | 5.2 | 14.8 | 0.00 | 0.00 | 0.00 | 65 | 1008.0 |
| 20260506093307 | 41 | 160 | 4.3 | 0.0 | 0.00 | 0.00 | 0.00 | 75 | 1008.0 |
| 20260506090307 | 41 | 180 | 8.7 | 0.0 | 0.00 | 0.00 | 0.00 | 80 | 1008.0 |
| 20260506083307 | 37 | 0 | 1.7 | 0.0 | 0.00 | 0.00 | 0.00 | 93 | 1008.0 |
| 20260506073307 | 33 | 0 | 0.0 | 0.0 | 0.00 | 0.00 | 0.00 | 93 | 1007.0 |
| 20260506070306 | 32 | 0 | 1.7 | 0.0 | 0.00 | 0.00 | 0.00 | 10 | 1007.0 |
| 20260506060306 | 33 | 170 | 5.2 | 0.0 | 0.00 | 0.00 | 0.00 | 93 | 1007.0 |
| 20260506050306 | 35 | 0 | 1.7 | 0.0 | 0.00 | 0.00 | 0.00 | 93 | 1006.0 |
| 20260506043307 | 35 | 0 | 0.0 | 0.0 | 0.00 | 0.00 | 0.00 | 86 | 1006.0 |
| 20260506040307 | 35 | 0 | 0.9 | 0.0 | 0.00 | 0.00 | 0.00 | 86 | 1006.0 |
| 20260506033307 | 33 | 0 | 1.7 | 0.0 | 0.00 | 0.00 | 0.00 | 93 | 1005.0 |
| 20260506030307 | 33 | 0 | 0.9 | 0.0 | 0.00 | 0.00 | 0.00 | 93 | 1005.0 |
| 20260506023306 | 35 | 210 | 5.2 | 0.0 | 0.00 | 0.00 | 0.00 | 86 | 1005.0 |
| 20260506020306 | 33 | 130 | 2.6 | 0.0 | 0.00 | 0.00 | 0.00 | 93 | 1005.0 |
| 20260506013307 | 35 | 200 | 7.0 | 0.0 | 0.00 | 0.00 | 0.00 | 86 | 1004.0 |
| 20260506010307 | 33 | 190 | 5.2 | 0.0 | 0.00 | 0.00 | 0.00 | 93 | 1004.0 |
| 20260506003306 | 33 | 190 | 2.6 | 0.0 | 0.00 | 0.00 | 0.00 | 93 | 1004.0 |
| 20260506000307 | 33 | 160 | 2.6 | 0.0 | 0.00 | 0.00 | 0.00 | 93 | 1004.0 |
| 20260505233307 | 33 | 200 | 5.2 | 0.0 | 0.00 | 0.00 | 0.00 | 93 | 1004.0 |
| 20260505230306 | 33 | 190 | 4.3 | 0.0 | 0.00 | 0.00 | 0.00 | 93 | 1004.0 |
| 20260505223306 | 33 | 180 | 5.2 | 0.0 | 0.00 | 0.00 | 0.00 | 93 | 1003.0 |
| 20260505220306 | 33 | 170 | 5.2 | 0.0 | 0.00 | 0.00 | 0.00 | 93 | 1003.0 |
| 20260505213306 | 33 | 180 | 7.8 | 0.0 | 0.00 | 0.00 | 0.00 | 93 | 1003.0 |
| 20260505210306 | 33 | 180 | 8.7 | 0.0 | 0.00 | 0.00 | 0.00 | 93 | 1003.0 |
| 20260505203306 | 35 | 200 | 7.8 | 0.0 | 0.00 | 0.00 | 0.00 | 86 | 1003.0 |
| 20260505200306 | 35 | 160 | 6.1 | 15.6 | 0.00 | 0.00 | 0.00 | 86 | 1003.0 |